Terminal Aerodrome Forecast
Issued by NWS Sterling, VA

Current Version | Previous Version | Graphics & Text | Print | Product List | Glossary On
Versions: 1 2 3 4 5 6 7 8 9 10 11 12 13 14 15 16 17 18 19
963
FTUS41 KLWX 232100 AAA
TAFIAD
TAF AMD
KIAD 232100Z 2321/2424 13006KT P6SM SCT040 OVC200
     FM240500 06004KT P6SM SCT025 OVC035
     FM240700 06004KT P6SM -RA OVC025
     FM241000 03006KT P6SM -RA BKN015 OVC025
     FM241900 05009KT 1 1/2SM -RA BKN008 OVC025=

USA.gov is the U.S. government's official web portal to all federal, state and local government web resources and services.